Time;durP1;ratioP1;P1;durP2;ratioP2;P2;SDS_P1;SDS_P2;PMS_P1;PMS_P2;Temp;Humidity;BMP_temperature;BMP_pressure;BME280_temperature;BME280_humidity;BME280_pressure;Samples;Min_cycle;Max_cycle;Signal;HPM_P1;HPM_P2
2024/01/08 00:00:21;;;;;;;229.10;143.82;;;;;;;;;;5054349;28;20080;-89
2024/01/08 00:02:46;;;;;;;249.77;148.07;;;;;;;;;;5061438;28;20070;-88
2024/01/08 00:05:12;;;;;;;211.50;127.45;;;;;;;;;;5062260;28;20192;-88
2024/01/08 00:07:37;;;;;;;272.67;152.82;;;;;;;;;;5058128;28;20029;-89
2024/01/08 00:10:03;;;;;;;213.02;122.93;;;;;;;;;;5062219;28;20028;-88
2024/01/08 00:12:28;;;;;;;163.93;102.95;;;;;;;;;;5056238;28;20024;-89
2024/01/08 00:14:54;;;;;;;198.10;122.30;;;;;;;;;;5048336;28;20051;-89
2024/01/08 00:17:19;;;;;;;183.18;110.13;;;;;;;;;;5046781;28;20128;-88
2024/01/08 00:19:44;;;;;;;140.32;90.07;;;;;;;;;;5049520;28;20111;-89
2024/01/08 00:22:09;;;;;;;84.03;51.13;;;;;;;;;;5046469;28;20021;-87
2024/01/08 00:24:35;;;;;;;133.05;71.38;;;;;;;;;;5047887;28;20104;-89
2024/01/08 00:27:00;;;;;;;76.63;47.20;;;;;;;;;;5046648;28;20055;-86
2024/01/08 00:29:25;;;;;;;54.00;33.60;;;;;;;;;;5048823;28;20021;-88
2024/01/08 00:31:51;;;;;;;58.70;37.15;;;;;;;;;;5049754;28;20029;-87
2024/01/08 00:34:16;;;;;;;48.35;32.38;;;;;;;;;;5051563;28;20092;-90
2024/01/08 00:36:41;;;;;;;37.13;24.48;;;;;;;;;;5051406;28;20013;-88
2024/01/08 00:39:09;;;;;;;38.55;27.90;;;;;;;;;;5052008;28;20005;-88
2024/01/08 00:41:34;;;;;;;25.50;16.15;;;;;;;;;;5051993;28;20135;-88
2024/01/08 00:44:01;;;;;;;34.28;23.60;;;;;;;;;;5052299;28;20082;-90
2024/01/08 00:46:26;;;;;;;20.08;14.75;;;;;;;;;;5054594;28;20016;-88
2024/01/08 00:48:52;;;;;;;19.70;13.18;;;;;;;;;;5052817;28;20047;-88
2024/01/08 00:51:18;;;;;;;19.17;11.27;;;;;;;;;;5049661;28;20017;-88
2024/01/08 00:53:44;;;;;;;126.50;48.95;;;;;;;;;;5028867;28;20033;-88
2024/01/08 00:56:09;;;;;;;14.13;8.68;;;;;;;;;;5012934;28;20544;-89
2024/01/08 00:58:35;;;;;;;26.95;17.58;;;;;;;;;;5028989;28;20160;-90
2024/01/08 01:01:00;;;;;;;36.53;18.92;;;;;;;;;;5034990;28;20010;-89
2024/01/08 01:03:26;;;;;;;17.25;11.18;;;;;;;;;;5039121;28;20028;-89
2024/01/08 01:05:51;;;;;;;39.17;19.80;;;;;;;;;;5031958;28;20026;-90
2024/01/08 01:08:16;;;;;;;48.97;24.58;;;;;;;;;;5015405;28;20017;-90
2024/01/08 01:10:42;;;;;;;31.50;23.63;;;;;;;;;;5032869;28;20092;-88
2024/01/08 01:13:07;;;;;;;17.80;14.18;;;;;;;;;;5032226;28;20037;-90
2024/01/08 01:15:32;;;;;;;15.23;9.23;;;;;;;;;;5032608;28;20028;-90
2024/01/08 01:18:00;;;;;;;30.20;17.48;;;;;;;;;;5030849;28;20040;-89
2024/01/08 01:20:25;;;;;;;8.18;6.10;;;;;;;;;;5031473;28;20040;-89
2024/01/08 01:22:50;;;;;;;14.57;10.98;;;;;;;;;;5031107;28;20025;-89
2024/01/08 01:25:16;;;;;;;18.55;13.52;;;;;;;;;;5047251;28;20467;-88
2024/01/08 01:27:41;;;;;;;15.05;9.98;;;;;;;;;;5053109;28;20021;-89
2024/01/08 01:30:06;;;;;;;25.05;18.23;;;;;;;;;;5056601;28;20066;-88
2024/01/08 01:32:32;;;;;;;37.65;27.17;;;;;;;;;;5051610;28;20441;-89
2024/01/08 01:34:57;;;;;;;10.75;6.13;;;;;;;;;;5051188;28;20422;-87
2024/01/08 01:37:23;;;;;;;66.93;30.50;;;;;;;;;;5051745;28;20024;-87
2024/01/08 01:39:48;;;;;;;40.17;20.70;;;;;;;;;;5050545;28;20108;-87
2024/01/08 01:42:13;;;;;;;184.80;82.30;;;;;;;;;;5050894;28;20462;-87
2024/01/08 01:44:39;;;;;;;71.65;38.10;;;;;;;;;;5051491;28;20013;-89
2024/01/08 01:47:04;;;;;;;28.33;24.98;;;;;;;;;;5045756;28;20027;-89
2024/01/08 01:49:29;;;;;;;11.77;8.95;;;;;;;;;;5038673;28;20506;-87
2024/01/08 01:51:56;;;;;;;16.77;11.68;;;;;;;;;;5042571;28;20104;-89
2024/01/08 01:54:22;;;;;;;34.58;20.50;;;;;;;;;;5041056;28;20077;-89
2024/01/08 01:56:51;;;;;;;43.30;28.10;;;;;;;;;;5044339;28;20028;-88
2024/01/08 01:59:17;;;;;;;46.53;30.70;;;;;;;;;;5039552;28;20590;-88
2024/01/08 02:01:44;;;;;;;47.28;31.45;;;;;;;;;;5042974;28;20147;-88
2024/01/08 02:04:09;;;;;;;16.35;10.93;;;;;;;;;;5042018;28;20028;-87
2024/01/08 02:06:35;;;;;;;33.08;17.75;;;;;;;;;;5045136;28;20569;-88
2024/01/08 02:09:01;;;;;;;14.75;11.18;;;;;;;;;;5041627;28;20059;-89
2024/01/08 02:11:27;;;;;;;28.83;17.60;;;;;;;;;;5044189;28;20082;-87
2024/01/08 02:13:52;;;;;;;29.88;20.95;;;;;;;;;;5044036;28;20124;-89
2024/01/08 02:16:18;;;;;;;46.45;24.02;;;;;;;;;;5045541;28;20037;-89
2024/01/08 02:18:43;;;;;;;119.22;54.47;;;;;;;;;;5044953;28;20116;-88
2024/01/08 02:21:08;;;;;;;28.98;17.92;;;;;;;;;;5048487;28;20005;-89
2024/01/08 02:23:34;;;;;;;18.13;10.27;;;;;;;;;;5045607;28;20025;-87
2024/01/08 02:25:59;;;;;;;37.72;21.52;;;;;;;;;;5042827;28;20223;-88
2024/01/08 02:28:25;;;;;;;17.13;9.32;;;;;;;;;;5044457;28;20024;-89
2024/01/08 02:30:50;;;;;;;18.73;13.80;;;;;;;;;;5041774;28;20067;-89
2024/01/08 02:33:15;;;;;;;15.30;10.77;;;;;;;;;;5045058;28;20016;-89
2024/01/08 02:35:41;;;;;;;20.00;11.25;;;;;;;;;;5043328;28;20033;-88
2024/01/08 02:38:07;;;;;;;8.73;6.38;;;;;;;;;;5046426;28;20025;-88
2024/01/08 02:40:32;;;;;;;19.65;12.93;;;;;;;;;;5043706;28;20094;-89
2024/01/08 02:42:57;;;;;;;14.23;9.57;;;;;;;;;;5042934;28;20562;-90
2024/01/08 02:45:22;;;;;;;16.52;9.57;;;;;;;;;;5043406;28;20023;-90
2024/01/08 02:47:48;;;;;;;5.20;4.20;;;;;;;;;;5043712;28;20029;-88
2024/01/08 02:50:13;;;;;;;4.32;3.92;;;;;;;;;;5045846;28;20032;-88
2024/01/08 02:52:38;;;;;;;5.78;4.78;;;;;;;;;;5045670;28;20032;-89
2024/01/08 02:55:04;;;;;;;13.02;9.50;;;;;;;;;;5048174;28;20021;-90
2024/01/08 02:57:29;;;;;;;14.30;10.70;;;;;;;;;;5049112;28;20033;-89
2024/01/08 02:59:55;;;;;;;13.40;8.55;;;;;;;;;;5049056;28;20024;-89
2024/01/08 03:02:21;;;;;;;27.95;14.57;;;;;;;;;;5049646;28;20023;-88
2024/01/08 03:04:47;;;;;;;60.35;30.73;;;;;;;;;;5049213;28;20783;-88
2024/01/08 03:07:17;;;;;;;13.50;8.25;;;;;;;;;;5048493;28;20051;-88
2024/01/08 03:09:42;;;;;;;5.65;4.18;;;;;;;;;;5047134;28;20031;-88
2024/01/08 03:12:08;;;;;;;5.72;3.88;;;;;;;;;;5047087;28;20025;-88
2024/01/08 03:14:33;;;;;;;8.88;5.28;;;;;;;;;;5050200;28;20601;-88
2024/01/08 03:16:58;;;;;;;14.82;8.45;;;;;;;;;;5050073;28;20041;-88
2024/01/08 03:19:24;;;;;;;10.55;5.78;;;;;;;;;;5047082;28;20755;-88
2024/01/08 03:21:49;;;;;;;23.98;13.68;;;;;;;;;;5047984;28;20089;-88
2024/01/08 03:24:14;;;;;;;47.22;25.92;;;;;;;;;;5046238;28;20013;-88
2024/01/08 03:26:39;;;;;;;17.75;9.73;;;;;;;;;;5047778;28;20032;-86
2024/01/08 03:29:06;;;;;;;62.92;28.88;;;;;;;;;;5047836;28;20031;-87
2024/01/08 03:31:31;;;;;;;15.43;9.50;;;;;;;;;;5050288;28;20078;-89
2024/01/08 03:33:57;;;;;;;256.08;88.05;;;;;;;;;;5049374;28;20026;-88
2024/01/08 03:36:22;;;;;;;264.10;98.95;;;;;;;;;;5048554;28;20041;-89
2024/01/08 03:38:48;;;;;;;81.32;35.20;;;;;;;;;;5049228;28;20021;-90
2024/01/08 03:41:13;;;;;;;20.95;10.20;;;;;;;;;;5051023;28;20013;-90
2024/01/08 03:43:38;;;;;;;12.98;6.25;;;;;;;;;;5048430;28;20044;-89
2024/01/08 03:46:04;;;;;;;4.15;3.75;;;;;;;;;;5049919;28;20025;-89
2024/01/08 03:48:29;;;;;;;3.88;3.10;;;;;;;;;;5049579;28;20516;-89
2024/01/08 03:50:55;;;;;;;3.95;3.50;;;;;;;;;;5043678;28;20080;-89
2024/01/08 03:53:21;;;;;;;4.20;3.78;;;;;;;;;;5049408;28;20025;-89
2024/01/08 03:55:46;;;;;;;20.20;12.70;;;;;;;;;;5049836;28;20074;-89
2024/01/08 03:58:11;;;;;;;20.83;9.13;;;;;;;;;;5049202;28;20082;-89
2024/01/08 04:00:37;;;;;;;21.77;9.98;;;;;;;;;;5046420;28;20036;-90
2024/01/08 04:03:02;;;;;;;22.65;12.55;;;;;;;;;;5046794;28;20074;-89
2024/01/08 04:05:28;;;;;;;41.78;22.10;;;;;;;;;;5048320;28;20074;-90
2024/01/08 04:07:53;;;;;;;18.15;8.77;;;;;;;;;;5050507;28;20029;-91
2024/01/08 04:10:18;;;;;;;16.02;8.32;;;;;;;;;;5050326;28;20041;-90
2024/01/08 04:12:43;;;;;;;25.77;15.07;;;;;;;;;;5054056;28;20045;-91
2024/01/08 04:15:09;;;;;;;18.02;12.77;;;;;;;;;;5051503;28;20511;-90
2024/01/08 04:17:34;;;;;;;25.75;12.73;;;;;;;;;;5051062;28;20045;-90
2024/01/08 04:19:59;;;;;;;19.65;10.77;;;;;;;;;;5043345;28;20036;-91
2024/01/08 04:22:26;;;;;;;14.88;7.80;;;;;;;;;;5053295;28;20021;-91
2024/01/08 04:24:51;;;;;;;15.50;9.00;;;;;;;;;;5051502;28;20026;-91
2024/01/08 04:27:16;;;;;;;35.47;16.02;;;;;;;;;;5052139;28;20552;-91
2024/01/08 04:29:41;;;;;;;89.82;32.13;;;;;;;;;;5033744;28;20052;-90
2024/01/08 04:32:07;;;;;;;81.88;34.13;;;;;;;;;;5034419;28;20032;-91
2024/01/08 04:34:33;;;;;;;41.95;18.30;;;;;;;;;;5049280;28;20044;-91
2024/01/08 04:36:58;;;;;;;51.80;21.13;;;;;;;;;;5036716;28;20532;-90
2024/01/08 04:39:24;;;;;;;37.17;16.23;;;;;;;;;;5051283;28;20084;-92
2024/01/08 04:41:49;;;;;;;31.95;15.55;;;;;;;;;;5037104;28;20666;-90
2024/01/08 04:44:15;;;;;;;36.72;20.30;;;;;;;;;;5050534;28;20605;-91
2024/01/08 04:46:44;;;;;;;61.53;37.15;;;;;;;;;;5048867;28;20027;-90
2024/01/08 04:49:09;;;;;;;47.97;17.85;;;;;;;;;;5032205;28;20025;-90
2024/01/08 04:51:35;;;;;;;23.17;10.90;;;;;;;;;;5031268;28;20148;-90
2024/01/08 04:54:01;;;;;;;23.40;12.82;;;;;;;;;;5039147;28;20787;-89
2024/01/08 04:56:29;;;;;;;20.02;10.68;;;;;;;;;;5042320;28;20041;-90
2024/01/08 04:58:54;;;;;;;32.15;18.23;;;;;;;;;;5047960;28;20474;-89
2024/01/08 05:01:20;;;;;;;41.58;19.85;;;;;;;;;;5045976;28;20044;-91
2024/01/08 05:03:45;;;;;;;22.90;12.27;;;;;;;;;;5045694;28;20021;-89
2024/01/08 05:06:11;;;;;;;480.73;267.42;;;;;;;;;;5045367;28;20044;-90
2024/01/08 05:08:37;;;;;;;70.05;56.47;;;;;;;;;;5048216;28;20467;-90
2024/01/08 05:11:03;;;;;;;24.20;18.33;;;;;;;;;;5050060;28;20021;-90
2024/01/08 05:13:28;;;;;;;24.85;13.05;;;;;;;;;;5047802;28;20510;-89
2024/01/08 05:15:54;;;;;;;16.92;13.25;;;;;;;;;;5048464;28;20041;-89
2024/01/08 05:18:28;;;;;;;16.55;9.88;;;;;;;;;;5050510;28;20115;-92
2024/01/08 05:20:54;;;;;;;22.30;14.52;;;;;;;;;;5052394;28;20017;-91
2024/01/08 05:23:20;;;;;;;15.63;10.20;;;;;;;;;;5051539;28;20028;-91
2024/01/08 05:25:45;;;;;;;4.28;3.88;;;;;;;;;;5050694;28;20104;-90
2024/01/08 05:28:10;;;;;;;4.97;3.60;;;;;;;;;;5046532;28;20049;-91
2024/01/08 05:30:36;;;;;;;3.13;2.90;;;;;;;;;;5049656;28;20556;-90
2024/01/08 05:33:02;;;;;;;20.25;14.88;;;;;;;;;;5049760;28;20017;-90
2024/01/08 05:35:27;;;;;;;48.78;26.60;;;;;;;;;;5050582;28;20072;-90
2024/01/08 05:37:55;;;;;;;15.63;10.32;;;;;;;;;;5051170;28;20556;-90
2024/01/08 05:40:21;;;;;;;54.40;36.88;;;;;;;;;;5050643;28;20020;-91
2024/01/08 05:42:46;;;;;;;17.05;13.05;;;;;;;;;;5051168;28;20013;-89
2024/01/08 05:45:13;;;;;;;18.35;12.07;;;;;;;;;;5033857;28;20088;-91
2024/01/08 05:47:38;;;;;;;15.70;9.40;;;;;;;;;;5047242;28;20032;-89
2024/01/08 05:50:04;;;;;;;16.17;8.85;;;;;;;;;;5048968;28;20021;-90
2024/01/08 05:52:29;;;;;;;11.77;6.70;;;;;;;;;;5050231;28;20013;-89
2024/01/08 05:54:56;;;;;;;35.70;19.48;;;;;;;;;;5047297;28;20739;-88
2024/01/08 05:57:21;;;;;;;57.22;39.30;;;;;;;;;;5048926;28;20082;-89
2024/01/08 05:59:47;;;;;;;40.72;31.02;;;;;;;;;;5041976;28;20021;-87
2024/01/08 06:02:12;;;;;;;42.47;25.40;;;;;;;;;;5042150;28;20745;-89
2024/01/08 06:04:38;;;;;;;16.90;9.35;;;;;;;;;;5041998;28;20643;-89
2024/01/08 06:07:04;;;;;;;7.63;4.05;;;;;;;;;;5042871;28;20082;-88
2024/01/08 06:09:29;;;;;;;3.42;2.80;;;;;;;;;;5041760;28;20029;-87
2024/01/08 06:11:54;;;;;;;14.57;10.20;;;;;;;;;;5045485;28;20030;-88
2024/01/08 06:14:20;;;;;;;11.05;5.00;;;;;;;;;;5039106;28;20589;-89
2024/01/08 06:16:45;;;;;;;7.70;4.90;;;;;;;;;;5044752;28;20064;-89
2024/01/08 06:19:11;;;;;;;41.95;17.20;;;;;;;;;;5040766;28;20017;-87
2024/01/08 06:21:36;;;;;;;58.15;26.52;;;;;;;;;;5044387;28;20020;-88
2024/01/08 06:24:01;;;;;;;23.48;13.88;;;;;;;;;;5041251;28;20013;-88
2024/01/08 06:26:30;;;;;;;26.45;15.07;;;;;;;;;;5041523;28;20017;-87
2024/01/08 06:28:55;;;;;;;33.33;17.47;;;;;;;;;;5040637;28;20075;-87
2024/01/08 06:31:22;;;;;;;148.52;59.17;;;;;;;;;;5041506;28;20559;-88
2024/01/08 06:33:47;;;;;;;33.72;16.55;;;;;;;;;;5044336;28;20111;-87
2024/01/08 06:36:12;;;;;;;4.47;3.75;;;;;;;;;;5040042;28;20032;-87
2024/01/08 06:38:38;;;;;;;91.05;46.70;;;;;;;;;;5042531;28;20025;-88
2024/01/08 06:41:03;;;;;;;84.45;43.50;;;;;;;;;;5042353;28;20013;-85
2024/01/08 06:43:28;;;;;;;16.58;11.73;;;;;;;;;;5043852;28;20053;-89
2024/01/08 06:45:54;;;;;;;24.58;15.65;;;;;;;;;;5044596;28;20442;-89
2024/01/08 06:48:20;;;;;;;104.90;55.40;;;;;;;;;;5046281;28;20028;-88
2024/01/08 06:50:45;;;;;;;6.95;6.43;;;;;;;;;;5043109;28;20036;-89
2024/01/08 06:53:11;;;;;;;53.55;37.67;;;;;;;;;;5028056;28;20025;-89
2024/01/08 06:55:36;;;;;;;119.97;68.00;;;;;;;;;;5045403;28;20075;-87
2024/01/08 06:58:02;;;;;;;117.38;69.45;;;;;;;;;;5044859;28;20073;-90
2024/01/08 07:00:30;;;;;;;15.88;11.77;;;;;;;;;;5044835;28;20564;-90
2024/01/08 07:02:55;;;;;;;82.57;50.83;;;;;;;;;;5044882;28;20155;-85
2024/01/08 07:05:21;;;;;;;213.93;145.20;;;;;;;;;;5046052;28;20111;-89
2024/01/08 07:07:46;;;;;;;29.73;25.40;;;;;;;;;;5045333;28;20025;-90
2024/01/08 07:10:12;;;;;;;21.65;17.48;;;;;;;;;;5045349;28;20025;-89
2024/01/08 07:12:37;;;;;;;33.70;30.05;;;;;;;;;;5046355;28;20565;-88
2024/01/08 07:15:03;;;;;;;37.80;21.20;;;;;;;;;;5047511;28;20395;-90
2024/01/08 07:17:29;;;;;;;158.15;97.88;;;;;;;;;;5043218;28;20046;-88
2024/01/08 07:19:54;;;;;;;403.70;174.40;;;;;;;;;;5047107;28;20080;-88
2024/01/08 07:22:20;;;;;;;85.15;36.15;;;;;;;;;;5048945;28;20021;-90
2024/01/08 07:24:45;;;;;;;222.55;115.75;;;;;;;;;;5047976;28;20013;-90
2024/01/08 07:27:10;;;;;;;129.75;67.47;;;;;;;;;;5047001;28;20101;-89
2024/01/08 07:29:36;;;;;;;82.75;45.47;;;;;;;;;;5047619;28;20021;-89
2024/01/08 07:32:02;;;;;;;79.18;49.58;;;;;;;;;;5048601;28;20021;-89
2024/01/08 07:34:27;;;;;;;19.35;15.35;;;;;;;;;;5054249;28;20024;-86
2024/01/08 07:36:53;;;;;;;66.70;40.90;;;;;;;;;;5047664;28;20025;-89
2024/01/08 07:39:19;;;;;;;89.10;53.28;;;;;;;;;;5051492;28;20029;-88
2024/01/08 07:41:45;;;;;;;26.15;18.65;;;;;;;;;;5033536;28;20059;-89
2024/01/08 07:44:10;;;;;;;52.92;41.67;;;;;;;;;;5052492;28;20025;-89
2024/01/08 07:46:36;;;;;;;21.27;14.88;;;;;;;;;;5054397;28;20050;-91
2024/01/08 07:49:01;;;;;;;12.05;9.48;;;;;;;;;;5053658;28;20033;-87
2024/01/08 07:51:26;;;;;;;9.32;8.30;;;;;;;;;;5032663;28;20028;-89
2024/01/08 07:53:52;;;;;;;7.15;5.97;;;;;;;;;;5049660;28;20483;-88
2024/01/08 07:56:22;;;;;;;15.77;12.57;;;;;;;;;;5051961;28;20534;-89
2024/01/08 07:58:47;;;;;;;9.45;8.15;;;;;;;;;;5050463;28;20028;-89
2024/01/08 08:01:14;;;;;;;20.63;16.58;;;;;;;;;;5052144;28;20116;-89
2024/01/08 08:03:40;;;;;;;17.02;14.50;;;;;;;;;;5053512;28;20025;-88
2024/01/08 08:06:05;;;;;;;28.30;20.88;;;;;;;;;;5052868;28;20475;-88
2024/01/08 08:08:31;;;;;;;88.82;56.60;;;;;;;;;;5050791;28;20036;-90
2024/01/08 08:10:58;;;;;;;37.08;26.30;;;;;;;;;;5050518;28;20086;-89
2024/01/08 08:13:24;;;;;;;32.03;24.85;;;;;;;;;;5052596;28;20029;-87
2024/01/08 08:15:49;;;;;;;26.13;21.48;;;;;;;;;;5049037;28;20023;-87
2024/01/08 08:18:14;;;;;;;64.13;45.63;;;;;;;;;;5053455;28;20466;-88
2024/01/08 08:20:40;;;;;;;56.45;45.88;;;;;;;;;;5049710;28;20112;-89
2024/01/08 08:23:05;;;;;;;40.25;34.58;;;;;;;;;;5048520;28;20478;-88
2024/01/08 08:25:30;;;;;;;44.80;31.45;;;;;;;;;;5049272;28;20380;-88
2024/01/08 08:27:55;;;;;;;55.28;35.83;;;;;;;;;;5047887;28;20102;-88
2024/01/08 08:30:22;;;;;;;31.15;21.73;;;;;;;;;;5047081;28;20026;-88
2024/01/08 08:32:47;;;;;;;61.17;36.17;;;;;;;;;;5031212;28;20560;-88
2024/01/08 08:35:13;;;;;;;22.02;15.80;;;;;;;;;;5042983;28;20132;-89
2024/01/08 08:37:38;;;;;;;16.20;12.77;;;;;;;;;;5037208;28;20115;-88
2024/01/08 08:40:03;;;;;;;25.10;19.83;;;;;;;;;;5047646;28;20017;-88
2024/01/08 08:42:29;;;;;;;18.40;14.55;;;;;;;;;;5057201;28;20020;-87
2024/01/08 08:44:54;;;;;;;21.85;16.48;;;;;;;;;;5067690;28;20020;-90
2024/01/08 08:47:21;;;;;;;29.13;13.00;;;;;;;;;;5055919;28;20043;-88
2024/01/08 08:49:46;;;;;;;14.88;9.55;;;;;;;;;;5047132;28;20052;-89
2024/01/08 08:52:11;;;;;;;27.92;20.55;;;;;;;;;;5047456;28;20426;-89
2024/01/08 08:54:37;;;;;;;13.60;11.48;;;;;;;;;;5046884;28;20035;-89
2024/01/08 08:57:02;;;;;;;9.68;7.72;;;;;;;;;;5049124;28;20479;-90
2024/01/08 08:59:28;;;;;;;8.52;7.57;;;;;;;;;;5046578;28;20028;-89
2024/01/08 09:01:54;;;;;;;11.52;8.95;;;;;;;;;;5048971;28;20506;-90
2024/01/08 09:04:20;;;;;;;38.58;28.73;;;;;;;;;;5047050;28;20028;-88
2024/01/08 09:06:45;;;;;;;35.20;23.20;;;;;;;;;;5047375;28;20025;-89
2024/01/08 09:09:12;;;;;;;10.93;8.52;;;;;;;;;;5047529;28;20085;-89
2024/01/08 09:11:38;;;;;;;35.90;19.50;;;;;;;;;;5047541;28;20064;-89
2024/01/08 09:14:04;;;;;;;49.10;25.95;;;;;;;;;;5055647;28;20052;-89
2024/01/08 09:16:29;;;;;;;59.47;35.55;;;;;;;;;;5047570;28;20496;-90
2024/01/08 09:18:55;;;;;;;52.63;32.65;;;;;;;;;;5045058;28;20040;-88
2024/01/08 09:21:20;;;;;;;73.53;45.55;;;;;;;;;;5045162;28;20052;-88
2024/01/08 09:23:46;;;;;;;75.20;51.38;;;;;;;;;;5046183;28;20017;-87
2024/01/08 09:26:11;;;;;;;25.77;18.35;;;;;;;;;;5045584;28;20025;-87
2024/01/08 09:28:36;;;;;;;25.70;16.10;;;;;;;;;;5046148;28;20109;-88
2024/01/08 09:31:03;;;;;;;17.00;12.05;;;;;;;;;;5047380;28;20037;-88
2024/01/08 09:33:28;;;;;;;32.00;25.02;;;;;;;;;;5050864;28;20024;-88
2024/01/08 09:35:54;;;;;;;19.38;17.35;;;;;;;;;;5047241;28;20021;-88
2024/01/08 09:38:19;;;;;;;8.27;6.30;;;;;;;;;;5046130;28;20029;-88
2024/01/08 09:40:46;;;;;;;14.45;11.48;;;;;;;;;;5047896;28;20512;-84
2024/01/08 09:43:14;;;;;;;9.77;7.47;;;;;;;;;;5045934;28;20040;-88
2024/01/08 09:46:01;;;;;;;25.92;15.68;;;;;;;;;;5043913;28;20049;-87
2024/01/08 09:48:26;;;;;;;6.63;6.03;;;;;;;;;;5042006;28;20442;-86
2024/01/08 09:50:52;;;;;;;4.55;4.15;;;;;;;;;;5044839;28;20025;-86
2024/01/08 09:53:17;;;;;;;4.20;3.40;;;;;;;;;;5042833;28;20033;-87
2024/01/08 09:55:44;;;;;;;5.13;4.63;;;;;;;;;;5040387;28;20032;-85
2024/01/08 09:58:10;;;;;;;4.85;4.38;;;;;;;;;;5038346;28;20039;-87
2024/01/08 10:00:35;;;;;;;4.55;4.15;;;;;;;;;;5027720;28;20021;-86
2024/01/08 10:03:00;;;;;;;5.75;5.20;;;;;;;;;;5027576;28;20017;-86
2024/01/08 10:05:26;;;;;;;8.52;6.20;;;;;;;;;;5026723;28;20033;-87
2024/01/08 10:07:51;;;;;;;5.50;5.00;;;;;;;;;;5043846;28;20021;-86
2024/01/08 10:10:19;;;;;;;15.50;10.45;;;;;;;;;;5043395;28;20562;-86
2024/01/08 10:12:47;;;;;;;30.90;19.80;;;;;;;;;;5043879;28;20334;-86
2024/01/08 10:15:18;;;;;;;50.17;27.45;;;;;;;;;;5026973;28;20041;-87
2024/01/08 10:17:43;;;;;;;60.38;33.20;;;;;;;;;;5037893;28;20076;-87
2024/01/08 10:20:11;;;;;;;105.50;46.15;;;;;;;;;;4993359;28;20055;-86
2024/01/08 10:22:37;;;;;;;45.35;25.50;;;;;;;;;;5027500;28;20390;-87
2024/01/08 10:25:02;;;;;;;38.10;23.88;;;;;;;;;;5026147;28;20052;-86
2024/01/08 10:27:28;;;;;;;45.35;34.63;;;;;;;;;;5045978;28;20033;-86
2024/01/08 10:29:54;;;;;;;77.53;47.70;;;;;;;;;;5045995;28;20208;-87
2024/01/08 10:32:19;;;;;;;19.73;14.27;;;;;;;;;;5046576;28;20036;-86
2024/01/08 10:34:45;;;;;;;23.13;15.75;;;;;;;;;;5048791;28;20036;-85
2024/01/08 10:37:12;;;;;;;10.55;9.32;;;;;;;;;;5047951;28;20029;-86
2024/01/08 10:39:38;;;;;;;15.65;12.52;;;;;;;;;;5044775;28;20051;-86
2024/01/08 10:42:04;;;;;;;38.72;22.88;;;;;;;;;;5036336;28;20057;-87
2024/01/08 10:44:29;;;;;;;9.57;8.57;;;;;;;;;;5041216;28;20048;-86
2024/01/08 10:46:59;;;;;;;9.82;8.80;;;;;;;;;;5045237;28;20032;-87
2024/01/08 10:49:32;;;;;;;36.38;31.25;;;;;;;;;;5045582;28;20036;-87
2024/01/08 10:51:58;;;;;;;9.35;8.10;;;;;;;;;;5045537;28;20483;-86
2024/01/08 10:54:26;;;;;;;5.95;5.45;;;;;;;;;;5045655;28;20119;-86
2024/01/08 10:56:55;;;;;;;65.63;33.95;;;;;;;;;;5045176;28;20052;-87
2024/01/08 10:59:23;;;;;;;8.65;7.15;;;;;;;;;;5045307;28;20115;-87
2024/01/08 11:01:49;;;;;;;9.05;8.18;;;;;;;;;;5045177;28;20387;-86
2024/01/08 11:04:14;;;;;;;5.75;5.25;;;;;;;;;;5045724;28;20013;-86
2024/01/08 11:06:41;;;;;;;5.47;4.95;;;;;;;;;;5045541;28;20032;-85
2024/01/08 11:09:23;;;;;;;5.75;5.25;;;;;;;;;;5046807;28;20028;-87
2024/01/08 11:11:48;;;;;;;20.17;14.90;;;;;;;;;;5048765;28;20037;-86
2024/01/08 11:14:14;;;;;;;20.92;14.20;;;;;;;;;;5049577;28;20581;-87
2024/01/08 11:16:39;;;;;;;29.20;14.85;;;;;;;;;;5042842;28;20053;-86
2024/01/08 11:19:17;;;;;;;6.65;5.40;;;;;;;;;;5041134;28;20029;-86
2024/01/08 11:21:42;;;;;;;7.63;6.50;;;;;;;;;;5037586;28;20072;-85
2024/01/08 11:24:09;;;;;;;6.22;5.38;;;;;;;;;;5033172;28;20514;-89
2024/01/08 11:26:41;;;;;;;6.32;5.50;;;;;;;;;;5047824;28;20070;-86
2024/01/08 11:29:09;;;;;;;5.30;4.85;;;;;;;;;;5046579;28;20489;-85
2024/01/08 11:31:47;;;;;;;15.85;9.93;;;;;;;;;;5045981;28;20056;-85
2024/01/08 11:34:46;;;;;;;9.60;8.40;;;;;;;;;;5049335;28;20502;-86
2024/01/08 11:37:31;;;;;;;15.95;12.35;;;;;;;;;;5048068;28;20025;-86
2024/01/08 11:39:56;;;;;;;7.20;6.50;;;;;;;;;;5047836;28;20383;-85
2024/01/08 11:42:22;;;;;;;6.30;5.65;;;;;;;;;;5046841;28;20017;-86
2024/01/08 11:44:49;;;;;;;17.20;11.68;;;;;;;;;;5047935;28;20013;-85
2024/01/08 11:47:14;;;;;;;145.45;70.47;;;;;;;;;;5048716;28;20668;-85
2024/01/08 11:49:40;;;;;;;249.20;111.30;;;;;;;;;;5047709;28;20021;-86
2024/01/08 11:52:06;;;;;;;31.08;21.52;;;;;;;;;;5048493;28;20017;-86
2024/01/08 11:54:33;;;;;;;14.63;11.18;;;;;;;;;;5048604;28;20021;-86
2024/01/08 11:56:58;;;;;;;9.05;8.05;;;;;;;;;;5049320;28;20036;-86
2024/01/08 11:59:30;;;;;;;30.30;21.85;;;;;;;;;;5050068;28;20479;-86
2024/01/08 12:02:06;;;;;;;48.42;43.17;;;;;;;;;;5049521;28;20021;-86
2024/01/08 12:04:31;;;;;;;20.42;17.60;;;;;;;;;;5050517;28;20048;-85
2024/01/08 12:06:56;;;;;;;35.78;32.13;;;;;;;;;;5064409;28;20430;-86
2024/01/08 12:09:21;;;;;;;10.00;9.00;;;;;;;;;;5064595;28;20386;-86
2024/01/08 12:11:47;;;;;;;10.30;9.23;;;;;;;;;;5046315;28;20066;-87
2024/01/08 12:14:12;;;;;;;6.57;5.65;;;;;;;;;;5048945;28;20040;-87
2024/01/08 12:16:37;;;;;;;8.05;7.25;;;;;;;;;;5049259;28;20067;-87
2024/01/08 12:19:03;;;;;;;6.60;6.00;;;;;;;;;;5049908;28;20041;-87
2024/01/08 12:21:28;;;;;;;7.90;6.88;;;;;;;;;;5048775;28;20036;-87
2024/01/08 12:23:54;;;;;;;8.05;7.28;;;;;;;;;;5046544;28;20028;-86
2024/01/08 12:26:20;;;;;;;10.25;8.70;;;;;;;;;;5049322;28;20056;-89
2024/01/08 12:28:46;;;;;;;8.55;7.65;;;;;;;;;;5048681;28;20029;-89
2024/01/08 12:31:11;;;;;;;9.27;8.07;;;;;;;;;;5049130;28;20027;-86
2024/01/08 12:33:37;;;;;;;8.40;7.60;;;;;;;;;;5048798;28;20028;-85
2024/01/08 12:36:03;;;;;;;9.10;8.10;;;;;;;;;;5038134;28;20056;-86
2024/01/08 12:38:30;;;;;;;17.80;11.73;;;;;;;;;;5029200;28;20033;-87
2024/01/08 12:40:55;;;;;;;24.25;19.08;;;;;;;;;;5035084;28;20101;-87
2024/01/08 12:43:20;;;;;;;26.17;20.55;;;;;;;;;;5047767;28;20107;-87
2024/01/08 12:45:47;;;;;;;56.72;40.00;;;;;;;;;;5047133;28;20021;-86
2024/01/08 12:48:13;;;;;;;20.73;18.30;;;;;;;;;;5046890;28;20024;-86
2024/01/08 12:50:38;;;;;;;23.08;15.90;;;;;;;;;;5048994;28;20032;-85
2024/01/08 12:53:03;;;;;;;44.75;25.98;;;;;;;;;;5048132;28;20060;-86
2024/01/08 12:55:29;;;;;;;153.73;68.40;;;;;;;;;;5046441;28;20670;-86
2024/01/08 12:57:57;;;;;;;102.20;47.00;;;;;;;;;;5049127;28;20115;-85
2024/01/08 13:00:25;;;;;;;41.00;20.53;;;;;;;;;;5029753;28;20024;-86
2024/01/08 13:02:50;;;;;;;90.43;55.45;;;;;;;;;;5049352;28;20349;-86
2024/01/08 13:05:17;;;;;;;55.42;24.80;;;;;;;;;;5048188;28;20109;-85
2024/01/08 13:07:43;;;;;;;29.42;15.60;;;;;;;;;;5046814;28;20501;-86
2024/01/08 13:10:09;;;;;;;128.05;53.03;;;;;;;;;;5045944;28;20024;-85
2024/01/08 13:12:36;;;;;;;166.15;63.90;;;;;;;;;;5048270;28;20024;-87
2024/01/08 13:15:01;;;;;;;101.93;44.58;;;;;;;;;;5049938;28;20107;-86
2024/01/08 13:17:27;;;;;;;72.75;36.28;;;;;;;;;;5047017;28;20172;-85
2024/01/08 13:19:52;;;;;;;29.63;23.08;;;;;;;;;;5046045;28;20021;-86
2024/01/08 13:22:18;;;;;;;143.93;56.75;;;;;;;;;;5046089;28;20021;-85
2024/01/08 13:24:43;;;;;;;40.83;33.15;;;;;;;;;;5046532;28;20032;-85
2024/01/08 13:27:13;;;;;;;19.08;15.68;;;;;;;;;;5046746;28;20231;-84
2024/01/08 13:29:39;;;;;;;59.28;40.13;;;;;;;;;;5047359;28;20090;-85
2024/01/08 13:32:04;;;;;;;76.63;50.38;;;;;;;;;;5046627;28;20116;-85
2024/01/08 13:34:29;;;;;;;49.67;36.45;;;;;;;;;;5059717;28;20036;-86
2024/01/08 13:36:55;;;;;;;31.52;23.33;;;;;;;;;;5046929;28;20535;-87
2024/01/08 13:39:20;;;;;;;44.80;36.70;;;;;;;;;;5047365;28;20040;-84
2024/01/08 13:41:45;;;;;;;23.98;19.42;;;;;;;;;;5045809;28;20104;-88
2024/01/08 13:44:11;;;;;;;44.92;35.97;;;;;;;;;;5049115;28;20024;-88
2024/01/08 13:46:36;;;;;;;29.65;24.13;;;;;;;;;;5045441;28;20025;-86
2024/01/08 13:49:01;;;;;;;44.83;30.73;;;;;;;;;;5048264;28;20041;-84
2024/01/08 13:51:27;;;;;;;39.03;26.20;;;;;;;;;;5051050;28;20108;-87
2024/01/08 13:53:53;;;;;;;36.65;23.27;;;;;;;;;;5048157;28;20382;-85
2024/01/08 13:56:19;;;;;;;24.13;20.42;;;;;;;;;;5048225;28;20048;-86
2024/01/08 13:58:44;;;;;;;41.03;30.65;;;;;;;;;;5048492;28;20471;-86
2024/01/08 14:01:09;;;;;;;58.92;44.33;;;;;;;;;;5045330;28;20017;-87
2024/01/08 14:03:35;;;;;;;24.08;16.02;;;;;;;;;;5044027;28;20049;-87
2024/01/08 14:06:01;;;;;;;88.53;41.72;;;;;;;;;;5025651;28;20060;-86
2024/01/08 14:08:28;;;;;;;18.42;13.13;;;;;;;;;;5045559;28;20025;-89
2024/01/08 14:10:53;;;;;;;29.98;20.17;;;;;;;;;;5036561;28;20360;-87
2024/01/08 14:13:19;;;;;;;13.27;11.32;;;;;;;;;;5039771;28;20036;-87